Progress, Indiana
Current Conditions -  °F | °C
As of 1:53 AM on Sunday 23 Nov 2014 (Local Time) from KMIE Reporting Station
Moderate Rain Moderate Rain  
Wind Chill: 42°   Ceiling: 7000
Heat Index: 48°   Visibility: 6mi
Dew Point: 42°   Wind: 14mph
Humidity: 80%   Direction: 210°SSW
Pressure: 30"   Gusts: NA
Location:  40.1286°N, 85.3767°W
Report Text: KMIE 230653Z AUTO 21012KT 6SM RA OVC070 09/06 A3000 RMK AO2 SLP156 P0008 T00890056
Loading
Personal Weather Stations






























Interactive Weather Map New forecast layout! Learn more

10-Day Weather Forecast

Advertisements
Track Severe Weather on mobile